Route Details

Aircraft Information
Group: Narrowbodies
Types: B738, B752
Route Data
Distance: 59nm
Duration: 0h 50m
Origin METAR: TIST 010553Z AUTO 08006KT 10SM SCT033 24/19 A3002 RMK AO2 SLP165 6//// T02390189 10250 20233 58016 PNO
Dest. METAR: TJSJ 010556Z 04012KT 10SM SCT027 SCT037 BKN055 25/19 A3004 RMK AO2 SLP172 60004 T02500194 10261 20233 58015
Freight Data
(for Feb 1, 2023)
Load Factor:
82%
Manifested Cargo: 56,079lbs
Financial History
Total Freight: 0lbs
Average Load: 0lbs/flt
Fuel Used: 0lbs
Avg. Fuel Used: 0lbs/flt
Fuel Expense: $0
Avg. Fuel Expense: $0
Avg. Fuel Cost: $0/lbs
Total Gross Income: $0
Pilot Pay: $0
Total Expenses: $0
Total Revenue: $0
Average Revenue: $0

Capitol Logistics 327




TIST
Cyril E King Airport
Charlotte Amalie, VI
TJSJ
Luis Munoz Marin International Airport
San Juan, PR

Activity Log

Date Flight Route Aircraft Duration
No Flights Yet